Aeroporto :
LOGIN :

Iscrizione | Disclaimer

   EN    FR    IT 

 










Sommario :    VFR   VFR Marginale   IFR   IFR Intensivo   IFR Molto Intensivo
Visibilità : 
Base nubi : 
>= 8 km
>= 3000ft
5 / 8 km
1000 / 3000 ft
1500m / 5 km
500 / 1000 ft
800 / 1500m
200 / 500 ft
< 800m
< 200 ft
Simboli :   Temporali  Nebbia  Neve Forte  Precipitazioni Forti  Vento > 20 kt
SIGMETs :   Varie  Temporali  Ghiacco  Turbolenza  Onda orograficha  Ceneri Vulcaniche







- Altitudine del aeroporto : 1 ft
- Carte del aeroporto


EGCK - Caernarfon

ULTIMO METAR :
  • 220720Z AUTO 20016KT 9999 BKN016/// OVC031/// 09/07 Q1025

METARs OBSOLETI :
  • 220650Z AUTO 20017KT 9999 FEW015/// SCT023/// OVC029/// 09/07 Q1025
  • 220620Z AUTO 20016G27KT 9999 SCT010/// OVC029/// 10/08 Q1025
  • 220550Z AUTO 19017KT 9999 -RA OVC007/// 10/08 Q1025
  • 220520Z AUTO 21014KT 9999 OVC006/// 10/09 Q1024
  • 220450Z AUTO 20012KT 9999 -RA OVC006/// 10/09 Q1024

TAF TAF EGCK
Valido dal 22 a 06 ore il 22 a 15 ore UTC


220504Z 2206/2215 18012KT 9999 BKN009
BECMG 2206/2209 20018G30KT SCT020
TEMPO 2213/2215 6000 RA BKN014
Nessun NOTAM noto per questo aeroporto.



MetMap, La meteo Aeronautica in un colpo d'occhio ! - Copyright ORBIFLY Dicembre 2007 - Disclaimer

ORBIFLY MET'MAP TEAM :

Programmazione e sviluppo : Alexandra Zaïnal
Concezione e sviluppo : Baudouin d'Aumeries
Co-Programmazione e sviluppo : Marc-Olivier Méhu
Supporto tecnico e logistico : Manuel Goepfert
Aiuto per la traduzione : Arnaldo La Scala

Contatto : metmap@orbifly.com




FONTI E CREDITI :

   NOAA